Time;durP1;ratioP1;P1;durP2;ratioP2;P2;SDS_P1;SDS_P2;PMS_P1;PMS_P2;Temp;Humidity;BMP_temperature;BMP_pressure;BME280_temperature;BME280_humidity;BME280_pressure;Samples;Min_cycle;Max_cycle;Signal;HPM_P1;HPM_P2
2023/02/24 00:01:23;;;;;;;1.80;0.63;;;;;;;;;;5013181;28;20466;-84
2023/02/24 00:03:49;;;;;;;4.00;0.53;;;;;;;;;;4974748;28;20933;-83
2023/02/24 00:06:15;;;;;;;3.13;0.20;;;;;;;;;;5013080;28;20489;-84
2023/02/24 00:08:41;;;;;;;6.00;0.60;;;;;;;;;;5009801;28;20416;-83
2023/02/24 00:11:08;;;;;;;6.20;0.80;;;;;;;;;;5000052;28;20847;-83
2023/02/24 00:13:34;;;;;;;5.83;0.93;;;;;;;;;;5002062;28;20415;-83
2023/02/24 00:16:01;;;;;;;4.37;0.70;;;;;;;;;;5000783;28;20461;-82
2023/02/24 00:18:27;;;;;;;3.00;0.50;;;;;;;;;;5002746;28;20419;-83
2023/02/24 00:20:56;;;;;;;2.93;0.40;;;;;;;;;;5001999;28;20475;-82
2023/02/24 00:23:22;;;;;;;3.40;0.70;;;;;;;;;;5000715;28;20402;-83
2023/02/24 00:25:49;;;;;;;8.00;0.87;;;;;;;;;;5000624;28;20535;-84
2023/02/24 00:28:14;;;;;;;4.43;0.77;;;;;;;;;;5001991;28;20511;-85
2023/02/24 00:30:42;;;;;;;3.67;0.30;;;;;;;;;;5000521;28;20500;-83
2023/02/24 00:33:11;;;;;;;9.10;0.80;;;;;;;;;;5002134;28;20425;-81
2023/02/24 00:35:37;;;;;;;1.33;0.40;;;;;;;;;;5002441;28;20412;-82
2023/02/24 00:38:03;;;;;;;0.60;0.20;;;;;;;;;;5000492;28;20415;-82
2023/02/24 00:40:29;;;;;;;3.03;0.67;;;;;;;;;;5000510;28;21072;-81
2023/02/24 00:42:55;;;;;;;5.87;0.73;;;;;;;;;;5000884;28;20406;-82
2023/02/24 00:45:21;;;;;;;5.07;0.57;;;;;;;;;;5002226;28;20460;-82
2023/02/24 00:47:47;;;;;;;2.10;0.30;;;;;;;;;;5001026;28;20407;-83
2023/02/24 00:50:13;;;;;;;3.03;0.30;;;;;;;;;;5001151;28;20414;-82
2023/02/24 00:52:39;;;;;;;1.97;0.30;;;;;;;;;;5002825;28;20461;-82
2023/02/24 00:55:13;;;;;;;5.93;0.20;;;;;;;;;;4999835;28;20415;-82
2023/02/24 00:57:40;;;;;;;0.97;0.30;;;;;;;;;;5031818;28;20471;-82
2023/02/24 01:00:11;;;;;;;7.40;1.07;;;;;;;;;;5030689;28;20436;-82
2023/02/24 01:02:37;;;;;;;1.93;0.40;;;;;;;;;;5032390;28;20429;-80
2023/02/24 01:05:04;;;;;;;3.70;0.40;;;;;;;;;;5032922;28;20394;-81
2023/02/24 01:07:30;;;;;;;6.60;0.77;;;;;;;;;;5033065;28;21027;-81
2023/02/24 01:09:56;;;;;;;1.23;0.20;;;;;;;;;;5033050;28;20436;-80
2023/02/24 01:12:37;;;;;;;0.97;0.50;;;;;;;;;;5032958;28;20446;-81
2023/02/24 01:15:04;;;;;;;3.70;0.50;;;;;;;;;;5032979;28;20897;-80
2023/02/24 01:17:30;;;;;;;2.70;0.50;;;;;;;;;;5033045;28;20427;-81
2023/02/24 01:19:59;;;;;;;1.20;0.20;;;;;;;;;;5032858;28;20408;-80
2023/02/24 01:22:26;;;;;;;3.97;0.83;;;;;;;;;;5032927;28;20424;-80
2023/02/24 01:24:52;;;;;;;3.20;0.63;;;;;;;;;;5032866;28;20407;-81
2023/02/24 01:27:18;;;;;;;2.20;0.63;;;;;;;;;;5031490;28;21018;-80
2023/02/24 01:29:45;;;;;;;1.93;0.40;;;;;;;;;;5032585;28;20427;-80
2023/02/24 01:32:15;;;;;;;2.37;0.57;;;;;;;;;;5032805;28;20488;-81
2023/02/24 01:34:42;;;;;;;3.40;0.57;;;;;;;;;;5032791;28;20409;-81
2023/02/24 01:37:08;;;;;;;1.33;0.30;;;;;;;;;;5032900;28;20419;-81
2023/02/24 01:39:34;;;;;;;4.53;0.67;;;;;;;;;;5032777;28;20503;-81
2023/02/24 01:42:01;;;;;;;6.07;0.43;;;;;;;;;;5031461;28;20917;-80
2023/02/24 01:44:31;;;;;;;4.57;0.53;;;;;;;;;;5032419;28;20401;-80
2023/02/24 01:46:59;;;;;;;3.40;0.30;;;;;;;;;;5031462;28;20841;-80
2023/02/24 01:49:32;;;;;;;4.13;0.50;;;;;;;;;;5032715;28;20448;-81
2023/02/24 01:52:01;;;;;;;2.07;0.20;;;;;;;;;;5032674;28;20413;-82
2023/02/24 01:54:30;;;;;;;4.97;0.60;;;;;;;;;;5031305;28;20433;-82
2023/02/24 01:56:56;;;;;;;4.73;0.37;;;;;;;;;;5035315;28;20766;-81
2023/02/24 01:59:23;;;;;;;4.47;0.37;;;;;;;;;;5036162;28;20869;-81
2023/02/24 02:01:52;;;;;;;0.80;0.20;;;;;;;;;;5036309;28;20476;-81
2023/02/24 02:04:22;;;;;;;7.33;0.80;;;;;;;;;;4982364;28;20772;-82
2023/02/24 02:06:48;;;;;;;1.60;0.20;;;;;;;;;;5015273;28;20465;-81
2023/02/24 02:09:14;;;;;;;1.80;0.23;;;;;;;;;;5016465;28;20410;-82
2023/02/24 02:11:41;;;;;;;3.70;0.40;;;;;;;;;;5016361;28;20496;-82
2023/02/24 02:14:08;;;;;;;0.77;0.20;;;;;;;;;;5016003;28;20413;-82
2023/02/24 02:16:40;;;;;;;5.83;0.53;;;;;;;;;;5016389;28;20417;-82
2023/02/24 02:19:25;;;;;;;2.40;0.40;;;;;;;;;;5016271;28;20769;-82
2023/02/24 02:21:57;;;;;;;6.53;0.87;;;;;;;;;;5014849;28;20470;-81
2023/02/24 02:24:23;;;;;;;4.77;0.50;;;;;;;;;;5016119;28;20419;-81
2023/02/24 02:27:08;;;;;;;4.37;0.50;;;;;;;;;;5015945;28;20470;-82
2023/02/24 02:29:52;;;;;;;7.97;0.90;;;;;;;;;;5015647;28;20421;-82
2023/02/24 02:32:30;;;;;;;4.10;0.50;;;;;;;;;;5015971;28;20414;-82
2023/02/24 02:34:58;;;;;;;6.20;0.60;;;;;;;;;;5015811;28;20414;-81
2023/02/24 02:37:42;;;;;;;1.70;0.20;;;;;;;;;;5015924;28;20493;-81
2023/02/24 02:40:16;;;;;;;2.77;0.43;;;;;;;;;;5015769;28;20407;-81
2023/02/24 02:42:47;;;;;;;2.37;0.40;;;;;;;;;;5015523;28;20406;-82
2023/02/24 02:45:18;;;;;;;2.20;0.30;;;;;;;;;;5015804;28;20418;-79
2023/02/24 02:47:53;;;;;;;4.70;0.43;;;;;;;;;;5015676;28;20418;-81
2023/02/24 02:50:23;;;;;;;7.33;0.83;;;;;;;;;;5015704;28;20546;-80
2023/02/24 02:52:52;;;;;;;2.43;0.50;;;;;;;;;;5014278;28;20410;-81
2023/02/24 02:55:22;;;;;;;3.73;0.50;;;;;;;;;;5015578;28;20455;-80
2023/02/24 02:57:51;;;;;;;3.27;0.63;;;;;;;;;;5015257;28;20399;-80
2023/02/24 03:00:40;;;;;;;5.13;0.43;;;;;;;;;;5015517;28;20501;-80
2023/02/24 03:03:11;;;;;;;4.00;0.67;;;;;;;;;;5015576;28;20406;-80
2023/02/24 03:05:45;;;;;;;5.83;1.33;;;;;;;;;;5015533;28;20407;-80
2023/02/24 03:08:14;;;;;;;2.67;0.20;;;;;;;;;;5015181;28;20573;-81
2023/02/24 03:10:43;;;;;;;1.87;0.60;;;;;;;;;;5015386;28;20489;-80
2023/02/24 03:13:12;;;;;;;3.40;0.43;;;;;;;;;;5014940;28;20783;-81
2023/02/24 03:15:41;;;;;;;4.13;0.80;;;;;;;;;;5015215;28;20491;-81
2023/02/24 03:18:10;;;;;;;5.70;0.63;;;;;;;;;;5015156;28;20455;-81
2023/02/24 03:20:39;;;;;;;6.87;1.60;;;;;;;;;;5015023;28;20474;-82
2023/02/24 03:23:08;;;;;;;5.07;1.57;;;;;;;;;;5013857;28;20439;-81
2023/02/24 03:25:43;;;;;;;17.00;1.50;;;;;;;;;;5014813;28;20453;-81
2023/02/24 03:28:15;;;;;;;7.30;1.40;;;;;;;;;;5014693;28;20419;-80
2023/02/24 03:30:43;;;;;;;3.83;0.80;;;;;;;;;;5015006;28;20404;-81
2023/02/24 03:33:16;;;;;;;4.80;0.53;;;;;;;;;;5014905;28;20467;-81
2023/02/24 03:35:42;;;;;;;3.43;0.30;;;;;;;;;;5014943;28;20831;-81
2023/02/24 03:38:09;;;;;;;2.40;0.33;;;;;;;;;;5014926;28;20510;-81
2023/02/24 03:40:36;;;;;;;2.47;1.20;;;;;;;;;;5014713;28;20540;-80
2023/02/24 03:43:06;;;;;;;6.03;0.37;;;;;;;;;;5014416;28;20433;-80
2023/02/24 03:45:36;;;;;;;1.70;0.57;;;;;;;;;;5014802;28;20898;-81
2023/02/24 03:48:03;;;;;;;2.57;0.20;;;;;;;;;;5014683;28;20418;-82
2023/02/24 03:50:32;;;;;;;3.23;0.43;;;;;;;;;;5014621;28;20497;-82
2023/02/24 03:53:08;;;;;;;2.20;0.40;;;;;;;;;;5014585;28;20460;-80
2023/02/24 03:55:57;;;;;;;2.20;0.50;;;;;;;;;;5014561;28;20509;-81
2023/02/24 03:58:38;;;;;;;4.33;0.67;;;;;;;;;;5014205;28;20796;-81
2023/02/24 04:01:21;;;;;;;5.00;0.30;;;;;;;;;;5014382;28;20464;-80
2023/02/24 04:03:51;;;;;;;3.03;0.20;;;;;;;;;;5014393;28;20476;-80
2023/02/24 04:06:17;;;;;;;1.20;0.30;;;;;;;;;;5014219;28;20498;-79
2023/02/24 04:08:52;;;;;;;3.17;0.30;;;;;;;;;;5014269;28;20930;-80
2023/02/24 04:11:24;;;;;;;2.07;0.30;;;;;;;;;;5014143;28;20905;-80
2023/02/24 04:14:11;;;;;;;2.77;0.67;;;;;;;;;;5013893;28;20792;-80
2023/02/24 04:16:47;;;;;;;3.13;0.80;;;;;;;;;;5013999;28;20890;-80
2023/02/24 04:19:15;;;;;;;2.33;0.20;;;;;;;;;;5013599;28;20413;-81
2023/02/24 04:21:42;;;;;;;8.30;0.73;;;;;;;;;;5013880;28;20982;-80
2023/02/24 04:24:13;;;;;;;4.10;0.70;;;;;;;;;;5012674;28;20422;-80
2023/02/24 04:26:40;;;;;;;2.93;0.30;;;;;;;;;;5012704;28;20458;-81
2023/02/24 04:29:08;;;;;;;3.23;0.47;;;;;;;;;;5013647;28;20831;-81
2023/02/24 04:31:35;;;;;;;2.33;0.60;;;;;;;;;;5013887;28;20420;-81
2023/02/24 04:34:01;;;;;;;3.80;1.57;;;;;;;;;;5012562;28;20470;-81
2023/02/24 04:36:27;;;;;;;9.13;0.47;;;;;;;;;;5013871;28;20487;-80
2023/02/24 04:38:53;;;;;;;6.17;0.57;;;;;;;;;;5013770;28;20779;-80
2023/02/24 04:41:22;;;;;;;0.90;0.30;;;;;;;;;;5013681;28;20990;-80
2023/02/24 04:43:49;;;;;;;8.07;0.20;;;;;;;;;;5013350;28;20418;-80
2023/02/24 04:46:16;;;;;;;3.43;0.47;;;;;;;;;;5013634;28;20918;-80
2023/02/24 04:48:42;;;;;;;3.27;0.40;;;;;;;;;;5013699;28;20437;-81
2023/02/24 04:51:08;;;;;;;1.57;0.30;;;;;;;;;;5012358;28;20428;-80
2023/02/24 04:53:34;;;;;;;5.10;1.50;;;;;;;;;;5013521;28;20417;-80
2023/02/24 04:56:07;;;;;;;5.80;1.17;;;;;;;;;;5012324;28;20422;-80
2023/02/24 04:58:33;;;;;;;4.27;0.60;;;;;;;;;;5013211;28;20821;-80
2023/02/24 05:00:59;;;;;;;7.73;0.73;;;;;;;;;;5013374;28;20453;-80
2023/02/24 05:03:29;;;;;;;2.50;0.47;;;;;;;;;;5013341;28;20414;-81
2023/02/24 05:05:59;;;;;;;1.80;0.20;;;;;;;;;;5013379;28;20410;-81
2023/02/24 05:08:26;;;;;;;6.63;0.97;;;;;;;;;;5013307;28;20415;-82
2023/02/24 05:10:53;;;;;;;3.80;0.77;;;;;;;;;;4973987;28;20439;-82
2023/02/24 05:13:20;;;;;;;3.43;0.47;;;;;;;;;;5001298;28;20527;-82
2023/02/24 05:15:46;;;;;;;1.80;0.63;;;;;;;;;;4999462;28;20441;-82
2023/02/24 05:18:15;;;;;;;2.97;0.20;;;;;;;;;;5000903;28;20462;-82
2023/02/24 05:23:37;;;;;;;2.10;0.30;;;;;;;;;;5000416;28;20806;-82
2023/02/24 05:26:07;;;;;;;3.27;0.67;;;;;;;;;;5003076;28;20486;-82
2023/02/24 05:28:33;;;;;;;1.53;0.40;;;;;;;;;;4996269;28;20455;-81
2023/02/24 05:31:07;;;;;;;5.43;0.63;;;;;;;;;;4996421;28;20820;-81
2023/02/24 05:33:33;;;;;;;6.20;0.40;;;;;;;;;;5002413;28;20416;-81
2023/02/24 05:36:02;;;;;;;2.40;0.60;;;;;;;;;;5009451;28;20913;-81
2023/02/24 05:38:28;;;;;;;3.43;1.00;;;;;;;;;;5017067;28;20774;-81
2023/02/24 05:41:03;;;;;;;5.83;0.30;;;;;;;;;;5016981;28;20533;-80
2023/02/24 05:43:38;;;;;;;4.63;0.53;;;;;;;;;;5015227;28;20425;-82
2023/02/24 05:46:05;;;;;;;1.67;1.10;;;;;;;;;;5015379;28;20503;-82
2023/02/24 05:48:33;;;;;;;4.47;0.70;;;;;;;;;;5016871;28;20417;-82
2023/02/24 05:50:59;;;;;;;3.93;0.50;;;;;;;;;;5015446;28;20423;-82
2023/02/24 05:53:26;;;;;;;2.33;0.30;;;;;;;;;;5016624;28;20919;-82
2023/02/24 05:55:52;;;;;;;5.03;0.77;;;;;;;;;;5016625;28;20445;-82
2023/02/24 05:58:18;;;;;;;2.63;0.63;;;;;;;;;;5016280;28;20910;-82
2023/02/24 06:00:47;;;;;;;4.17;0.50;;;;;;;;;;5015312;28;20469;-80
2023/02/24 06:03:16;;;;;;;3.43;0.67;;;;;;;;;;5015187;28;20410;-80
2023/02/24 06:05:45;;;;;;;3.83;0.30;;;;;;;;;;5016198;28;20421;-80
2023/02/24 06:08:11;;;;;;;2.23;0.40;;;;;;;;;;5016082;28;20410;-80
2023/02/24 06:10:41;;;;;;;3.83;0.57;;;;;;;;;;5016037;28;20449;-81
2023/02/24 06:13:07;;;;;;;6.90;0.60;;;;;;;;;;4993032;28;20465;-81
2023/02/24 06:15:33;;;;;;;4.10;0.40;;;;;;;;;;5035490;28;20416;-82
2023/02/24 06:18:02;;;;;;;1.37;0.30;;;;;;;;;;5004267;28;20415;-81
2023/02/24 06:20:29;;;;;;;2.37;0.73;;;;;;;;;;5004786;28;20458;-82
2023/02/24 06:22:57;;;;;;;6.27;0.50;;;;;;;;;;5013727;28;20441;-82
2023/02/24 06:25:28;;;;;;;5.27;0.60;;;;;;;;;;5015963;28;20453;-81
2023/02/24 06:27:55;;;;;;;8.43;1.23;;;;;;;;;;5033167;28;20417;-80
2023/02/24 06:30:22;;;;;;;3.00;0.67;;;;;;;;;;5034381;28;20420;-81
2023/02/24 06:32:50;;;;;;;0.93;0.30;;;;;;;;;;5035500;28;21132;-81
2023/02/24 06:35:16;;;;;;;3.30;0.77;;;;;;;;;;5035288;28;20413;-81
2023/02/24 06:37:42;;;;;;;5.50;0.57;;;;;;;;;;5035142;28;20891;-80
2023/02/24 06:40:14;;;;;;;7.27;0.63;;;;;;;;;;5033648;28;20458;-80
2023/02/24 06:42:44;;;;;;;6.90;1.33;;;;;;;;;;5033495;28;20826;-80
2023/02/24 06:45:11;;;;;;;4.00;0.50;;;;;;;;;;5035553;28;20397;-82
2023/02/24 06:47:37;;;;;;;6.10;1.13;;;;;;;;;;5035470;28;20486;-82
2023/02/24 06:50:06;;;;;;;8.37;1.30;;;;;;;;;;5035432;28;20416;-83
2023/02/24 06:52:33;;;;;;;2.97;0.80;;;;;;;;;;5035393;28;20491;-83
2023/02/24 06:54:58;;;;;;;9.27;0.60;;;;;;;;;;5034009;28;20446;-80
2023/02/24 06:57:24;;;;;;;6.13;0.50;;;;;;;;;;5035031;28;20865;-79
2023/02/24 06:59:51;;;;;;;3.77;1.00;;;;;;;;;;5035321;28;20495;-80
2023/02/24 07:02:17;;;;;;;8.10;0.83;;;;;;;;;;5035143;28;20483;-83
2023/02/24 07:04:42;;;;;;;3.33;0.60;;;;;;;;;;5033936;28;20844;-83
2023/02/24 07:07:09;;;;;;;6.53;1.30;;;;;;;;;;5035038;28;20428;-82
2023/02/24 07:09:35;;;;;;;4.97;1.50;;;;;;;;;;5035098;28;20440;-83
2023/02/24 07:12:03;;;;;;;4.00;1.00;;;;;;;;;;5034701;28;20413;-83
2023/02/24 07:14:30;;;;;;;6.87;1.40;;;;;;;;;;5035039;28;20461;-83
2023/02/24 07:16:57;;;;;;;4.43;0.93;;;;;;;;;;5034984;28;20425;-83
2023/02/24 07:19:27;;;;;;;3.70;0.97;;;;;;;;;;5034822;28;20840;-84
2023/02/24 07:22:02;;;;;;;5.13;1.03;;;;;;;;;;5034792;28;20473;-82
2023/02/24 07:24:32;;;;;;;4.73;2.23;;;;;;;;;;5034771;28;20974;-83
2023/02/24 07:27:03;;;;;;;3.03;0.70;;;;;;;;;;5033024;28;20472;-82
2023/02/24 07:29:31;;;;;;;3.50;1.13;;;;;;;;;;5034652;28;20431;-82
2023/02/24 07:32:02;;;;;;;3.80;1.13;;;;;;;;;;5034551;28;20566;-82
2023/02/24 07:34:28;;;;;;;4.33;1.30;;;;;;;;;;5034502;28;20488;-83
2023/02/24 07:36:54;;;;;;;3.83;0.50;;;;;;;;;;5034518;28;20819;-83
2023/02/24 07:39:21;;;;;;;5.00;1.43;;;;;;;;;;5034502;28;20446;-81
2023/02/24 07:41:48;;;;;;;3.33;1.20;;;;;;;;;;5033951;28;20481;-82
2023/02/24 07:44:14;;;;;;;2.63;1.20;;;;;;;;;;5033300;28;20474;-82
2023/02/24 07:46:41;;;;;;;2.93;0.90;;;;;;;;;;5012025;28;20831;-83
2023/02/24 07:49:10;;;;;;;2.67;1.43;;;;;;;;;;5006074;28;20424;-83
2023/02/24 07:51:36;;;;;;;8.50;2.00;;;;;;;;;;5014559;28;20441;-83
2023/02/24 07:54:07;;;;;;;4.40;1.80;;;;;;;;;;5013504;28;20453;-82
2023/02/24 07:56:33;;;;;;;2.37;1.53;;;;;;;;;;5014122;28;20502;-82
2023/02/24 07:59:06;;;;;;;2.00;0.77;;;;;;;;;;5014435;28;20413;-83
2023/02/24 08:01:37;;;;;;;3.23;1.57;;;;;;;;;;5014317;28;20473;-83
2023/02/24 08:04:06;;;;;;;4.30;2.23;;;;;;;;;;4986808;28;21409;-81
2023/02/24 08:06:42;;;;;;;3.53;1.33;;;;;;;;;;5006645;28;20406;-83
2023/02/24 08:11:56;;;;;;;4.33;2.30;;;;;;;;;;5022516;28;20425;-85
2023/02/24 08:14:24;;;;;;;5.97;2.40;;;;;;;;;;5014066;28;20445;-83
2023/02/24 08:16:51;;;;;;;6.43;2.40;;;;;;;;;;5006326;28;20444;-82
2023/02/24 08:19:19;;;;;;;5.80;2.30;;;;;;;;;;4994271;28;20887;-83
2023/02/24 08:21:46;;;;;;;4.60;1.57;;;;;;;;;;4994197;28;20498;-83
2023/02/24 08:24:19;;;;;;;4.20;1.90;;;;;;;;;;4993087;28;20419;-85
2023/02/24 08:27:05;;;;;;;4.50;1.90;;;;;;;;;;5000308;28;20479;-82
2023/02/24 08:29:38;;;;;;;5.00;2.77;;;;;;;;;;5011198;28;20957;-82
2023/02/24 08:32:04;;;;;;;6.53;3.53;;;;;;;;;;5013905;28;20481;-82
2023/02/24 08:34:30;;;;;;;4.13;1.70;;;;;;;;;;5013649;28;20513;-83
2023/02/24 08:36:56;;;;;;;4.33;1.80;;;;;;;;;;5013734;28;20394;-82
2023/02/24 08:39:29;;;;;;;5.80;2.20;;;;;;;;;;5012480;28;20427;-82
2023/02/24 08:41:54;;;;;;;5.03;1.90;;;;;;;;;;5012055;28;20564;-83
2023/02/24 08:44:20;;;;;;;3.30;1.80;;;;;;;;;;5008022;28;20578;-83
2023/02/24 08:46:51;;;;;;;3.17;2.03;;;;;;;;;;5001956;28;20779;-83
2023/02/24 08:49:17;;;;;;;6.20;3.03;;;;;;;;;;5007761;28;20435;-81
2023/02/24 08:51:47;;;;;;;2.43;1.67;;;;;;;;;;5005950;28;20553;-84
2023/02/24 08:54:18;;;;;;;5.33;1.70;;;;;;;;;;5011979;28;20422;-80
2023/02/24 08:56:47;;;;;;;5.07;1.90;;;;;;;;;;5003847;28;20421;-83
2023/02/24 09:02:17;;;;;;;3.53;1.80;;;;;;;;;;5012725;28;20473;-83
2023/02/24 09:04:48;;;;;;;6.40;1.60;;;;;;;;;;5012475;28;20754;-82
2023/02/24 09:07:19;;;;;;;2.93;0.90;;;;;;;;;;5012715;28;20415;-84
2023/02/24 09:09:45;;;;;;;0.70;0.67;;;;;;;;;;5012622;28;20462;-85
2023/02/24 09:12:23;;;;;;;2.93;1.20;;;;;;;;;;5012191;28;20426;-84
2023/02/24 09:14:49;;;;;;;2.43;1.53;;;;;;;;;;5012625;28;20414;-83
2023/02/24 09:17:19;;;;;;;2.53;0.90;;;;;;;;;;5012465;28;20445;-84
2023/02/24 09:22:31;;;;;;;1.10;0.77;;;;;;;;;;5012452;28;20477;-82
2023/02/24 09:25:16;;;;;;;1.93;0.97;;;;;;;;;;5012457;28;20414;-82
2023/02/24 09:27:43;;;;;;;5.20;1.13;;;;;;;;;;5012157;28;20483;-82
2023/02/24 09:30:34;;;;;;;6.80;2.83;;;;;;;;;;5011145;28;20413;-84
2023/02/24 09:32:59;;;;;;;3.57;0.90;;;;;;;;;;5012079;28;20414;-83
2023/02/24 09:35:29;;;;;;;4.27;1.50;;;;;;;;;;5012275;28;20546;-84
2023/02/24 09:37:55;;;;;;;3.23;1.60;;;;;;;;;;5010008;28;20480;-83
2023/02/24 09:42:47;;;;;;;2.50;2.30;;;;;;;;;;5010915;28;20449;-83
2023/02/24 09:45:21;;;;;;;3.10;2.17;;;;;;;;;;5012852;28;20461;-84
2023/02/24 09:50:19;;;;;;;3.43;2.27;;;;;;;;;;5012927;28;20459;-83
2023/02/24 09:52:53;;;;;;;2.47;2.27;;;;;;;;;;5012907;28;20414;-84
2023/02/24 09:55:44;;;;;;;2.77;2.20;;;;;;;;;;5011551;28;20918;-82
2023/02/24 10:00:50;;;;;;;3.80;2.10;;;;;;;;;;5012819;28;20470;-84
2023/02/24 10:03:41;;;;;;;3.40;2.30;;;;;;;;;;5012849;28;20408;-80
2023/02/24 10:06:19;;;;;;;4.57;2.60;;;;;;;;;;4973893;28;20844;-80
2023/02/24 10:08:51;;;;;;;4.10;2.40;;;;;;;;;;5012816;28;20413;-82
2023/02/24 10:11:31;;;;;;;6.00;3.63;;;;;;;;;;5012440;28;20531;-80
2023/02/24 10:13:57;;;;;;;6.53;3.13;;;;;;;;;;5012684;28;20908;-80
2023/02/24 10:16:23;;;;;;;5.60;3.97;;;;;;;;;;5012960;28;20472;-83
2023/02/24 10:18:59;;;;;;;5.70;2.70;;;;;;;;;;5015005;28;20910;-82
2023/02/24 10:21:49;;;;;;;4.57;3.23;;;;;;;;;;5016254;28;20473;-82
2023/02/24 10:24:34;;;;;;;6.53;3.20;;;;;;;;;;5016226;28;20409;-82
2023/02/24 10:27:22;;;;;;;7.20;3.57;;;;;;;;;;5015608;28;20562;-83
2023/02/24 10:30:03;;;;;;;5.30;2.70;;;;;;;;;;5016154;28;20412;-85
2023/02/24 10:32:52;;;;;;;5.07;3.20;;;;;;;;;;5015669;28;20424;-83
2023/02/24 10:35:24;;;;;;;5.47;3.77;;;;;;;;;;5016074;28;20472;-82
2023/02/24 10:37:51;;;;;;;8.07;4.50;;;;;;;;;;5015969;28;20423;-83
2023/02/24 10:40:26;;;;;;;5.43;3.47;;;;;;;;;;5015711;28;20471;-83
2023/02/24 10:43:02;;;;;;;9.10;4.40;;;;;;;;;;5015603;28;20935;-83
2023/02/24 10:45:30;;;;;;;5.70;3.03;;;;;;;;;;5015744;28;20413;-80
2023/02/24 10:47:57;;;;;;;4.30;2.70;;;;;;;;;;5014591;28;20465;-84
2023/02/24 10:50:27;;;;;;;8.90;3.20;;;;;;;;;;5015651;28;20402;-80
2023/02/24 10:58:26;;;;;;;6.10;3.60;;;;;;;;;;5015355;28;20509;-84
2023/02/24 11:01:11;;;;;;;3.10;2.27;;;;;;;;;;5015393;28;20457;-79
2023/02/24 11:03:59;;;;;;;6.77;4.30;;;;;;;;;;5015589;28;20537;-84
2023/02/24 11:06:40;;;;;;;4.57;2.33;;;;;;;;;;4985251;28;20448;-80
2023/02/24 11:17:49;;;;;;;8.50;4.33;;;;;;;;;;5015539;28;20401;-84
2023/02/24 11:20:21;;;;;;;5.57;4.03;;;;;;;;;;5015228;28;20472;-79
2023/02/24 11:22:50;;;;;;;6.73;4.60;;;;;;;;;;5015242;28;20425;-79
2023/02/24 11:25:22;;;;;;;7.40;4.93;;;;;;;;;;5014868;28;20505;-80
2023/02/24 11:27:48;;;;;;;5.00;3.73;;;;;;;;;;5014600;28;20415;-77
2023/02/24 11:30:16;;;;;;;5.40;3.33;;;;;;;;;;5013594;28;20489;-82
2023/02/24 11:32:50;;;;;;;10.20;3.87;;;;;;;;;;5013694;28;20915;-84
2023/02/24 11:35:35;;;;;;;7.37;4.00;;;;;;;;;;5014944;28;20430;-77
2023/02/24 11:38:08;;;;;;;10.00;4.23;;;;;;;;;;5013499;28;20497;-79
2023/02/24 11:40:38;;;;;;;4.10;2.67;;;;;;;;;;5014584;28;20458;-81
2023/02/24 11:43:13;;;;;;;4.87;2.57;;;;;;;;;;5012980;28;20420;-83
2023/02/24 11:45:42;;;;;;;5.00;2.93;;;;;;;;;;4999627;28;20411;-80
2023/02/24 11:48:27;;;;;;;3.57;3.00;;;;;;;;;;5001657;28;20467;-82
2023/02/24 11:51:01;;;;;;;4.73;3.00;;;;;;;;;;5002512;28;20430;-82
2023/02/24 11:53:35;;;;;;;7.40;3.57;;;;;;;;;;5013370;28;20414;-77
2023/02/24 11:56:04;;;;;;;5.57;3.50;;;;;;;;;;5014342;28;20891;-79
2023/02/24 11:58:37;;;;;;;4.47;3.27;;;;;;;;;;5013250;28;20415;-80
2023/02/24 12:01:09;;;;;;;6.00;3.60;;;;;;;;;;5013115;28;20473;-80
2023/02/24 12:03:54;;;;;;;6.03;3.70;;;;;;;;;;5014660;28;20517;-79
2023/02/24 12:06:27;;;;;;;7.27;3.83;;;;;;;;;;5014266;28;20734;-79
2023/02/24 12:08:56;;;;;;;6.67;3.43;;;;;;;;;;4991429;28;20487;-81
2023/02/24 12:11:33;;;;;;;5.30;3.57;;;;;;;;;;5033481;28;20417;-81
2023/02/24 12:14:06;;;;;;;6.93;3.40;;;;;;;;;;5034144;28;20449;-84
2023/02/24 12:16:35;;;;;;;5.30;3.23;;;;;;;;;;5033948;28;20770;-85
2023/02/24 12:19:06;;;;;;;5.60;3.57;;;;;;;;;;5033743;28;20414;-80
2023/02/24 12:21:44;;;;;;;4.93;2.67;;;;;;;;;;5032376;28;20487;-80
2023/02/24 12:24:15;;;;;;;5.80;3.90;;;;;;;;;;5032506;28;20431;-81
2023/02/24 12:26:46;;;;;;;9.27;4.07;;;;;;;;;;5018969;28;20512;-83
2023/02/24 12:29:25;;;;;;;4.50;3.80;;;;;;;;;;5013906;28;20767;-80
2023/02/24 12:31:54;;;;;;;6.93;3.43;;;;;;;;;;5013709;28;20414;-83
2023/02/24 12:34:38;;;;;;;3.70;3.10;;;;;;;;;;5013682;28;20410;-79
2023/02/24 12:37:07;;;;;;;7.97;3.30;;;;;;;;;;5013877;28;20405;-84
2023/02/24 12:39:42;;;;;;;4.57;3.50;;;;;;;;;;5013272;28;20407;-81
2023/02/24 12:42:25;;;;;;;6.00;4.10;;;;;;;;;;5013339;28;20812;-80
2023/02/24 12:45:00;;;;;;;5.67;3.67;;;;;;;;;;5012420;28;20882;-76
2023/02/24 12:47:36;;;;;;;5.90;4.77;;;;;;;;;;5013763;28;20405;-78
2023/02/24 12:50:23;;;;;;;7.00;5.23;;;;;;;;;;5013583;28;20792;-83
2023/02/24 12:53:01;;;;;;;7.40;3.70;;;;;;;;;;5013568;28;20483;-83
2023/02/24 12:55:37;;;;;;;8.43;4.70;;;;;;;;;;5013071;28;20414;-82
2023/02/24 12:58:16;;;;;;;8.33;5.50;;;;;;;;;;5013534;28;20766;-81
2023/02/24 13:00:44;;;;;;;9.27;4.43;;;;;;;;;;5013452;28;20463;-77
2023/02/24 13:03:43;;;;;;;8.80;4.67;;;;;;;;;;5007206;28;20544;-80
2023/02/24 13:06:15;;;;;;;7.77;5.17;;;;;;;;;;4960723;28;20921;-84
2023/02/24 13:08:50;;;;;;;8.27;4.57;;;;;;;;;;4993793;28;20411;-79
2023/02/24 13:11:22;;;;;;;13.23;5.63;;;;;;;;;;4961511;28;20775;-81
2023/02/24 13:13:55;;;;;;;7.70;4.80;;;;;;;;;;5002364;28;20438;-82
2023/02/24 13:16:37;;;;;;;8.40;4.80;;;;;;;;;;5013040;28;20935;-79
2023/02/24 13:19:04;;;;;;;9.00;4.30;;;;;;;;;;5013063;28;20442;-80
2023/02/24 13:21:30;;;;;;;7.90;4.10;;;;;;;;;;5013162;28;20938;-83
2023/02/24 13:24:00;;;;;;;11.57;5.63;;;;;;;;;;5011329;28;20790;-79
2023/02/24 13:26:28;;;;;;;7.53;4.33;;;;;;;;;;5012471;28;20475;-84
2023/02/24 13:29:01;;;;;;;9.70;4.57;;;;;;;;;;5013112;28;20427;-83
2023/02/24 13:31:38;;;;;;;10.17;4.40;;;;;;;;;;5013015;28;20426;-84
2023/02/24 13:34:12;;;;;;;6.70;3.60;;;;;;;;;;5011751;28;20427;-79
2023/02/24 13:36:45;;;;;;;7.73;4.67;;;;;;;;;;5011845;28;20438;-82
2023/02/24 13:39:28;;;;;;;6.77;3.83;;;;;;;;;;5001470;28;20472;-85
2023/02/24 13:42:05;;;;;;;6.10;3.17;;;;;;;;;;5008390;28;20522;-82
2023/02/24 13:44:34;;;;;;;7.60;2.90;;;;;;;;;;5013095;28;20405;-80
2023/02/24 13:47:02;;;;;;;4.97;2.77;;;;;;;;;;5012533;28;20478;-81
2023/02/24 13:49:47;;;;;;;5.80;2.47;;;;;;;;;;5012983;28;20804;-81
2023/02/24 13:52:14;;;;;;;9.87;2.87;;;;;;;;;;5014887;28;20773;-81
2023/02/24 13:54:52;;;;;;;3.83;2.27;;;;;;;;;;5016779;28;20519;-81
2023/02/24 13:57:18;;;;;;;8.90;2.30;;;;;;;;;;5016307;28;20415;-82
2023/02/24 13:59:56;;;;;;;4.47;2.17;;;;;;;;;;5015420;28;20764;-80
2023/02/24 14:02:29;;;;;;;2.90;2.10;;;;;;;;;;5016384;28;20982;-83
2023/02/24 14:04:57;;;;;;;9.23;2.90;;;;;;;;;;5014858;28;20436;-81
2023/02/24 14:07:24;;;;;;;8.10;2.90;;;;;;;;;;5016505;28;20436;-83
2023/02/24 14:10:01;;;;;;;6.20;2.83;;;;;;;;;;5013085;28;20544;-79
2023/02/24 14:12:29;;;;;;;3.13;1.93;;;;;;;;;;4967923;28;21006;-79
2023/02/24 14:14:55;;;;;;;3.63;1.57;;;;;;;;;;5016397;28;20433;-84
2023/02/24 14:17:32;;;;;;;5.90;2.20;;;;;;;;;;5016334;28;20429;-79
2023/02/24 14:20:05;;;;;;;5.07;1.20;;;;;;;;;;5016383;28;20415;-78
2023/02/24 14:22:33;;;;;;;4.27;1.47;;;;;;;;;;5016157;28;20488;-78
2023/02/24 14:25:03;;;;;;;5.80;1.37;;;;;;;;;;5014854;28;20501;-83
2023/02/24 14:27:29;;;;;;;2.80;0.70;;;;;;;;;;5015872;28;20427;-82
2023/02/24 14:29:55;;;;;;;4.30;1.20;;;;;;;;;;5015394;28;20471;-84
2023/02/24 14:32:23;;;;;;;7.93;1.13;;;;;;;;;;5015980;28;20440;-79
2023/02/24 14:34:49;;;;;;;7.20;1.17;;;;;;;;;;5016083;28;20413;-79
2023/02/24 14:37:16;;;;;;;7.40;0.40;;;;;;;;;;5015882;28;20860;-84
2023/02/24 14:39:49;;;;;;;5.60;1.13;;;;;;;;;;5015934;28;20416;-84
2023/02/24 14:42:15;;;;;;;3.10;0.70;;;;;;;;;;5015657;28;20498;-83
2023/02/24 14:44:48;;;;;;;7.27;0.60;;;;;;;;;;5015853;28;20809;-80
2023/02/24 14:47:15;;;;;;;2.43;0.80;;;;;;;;;;5015821;28;20425;-82
2023/02/24 14:49:41;;;;;;;8.97;0.70;;;;;;;;;;5015672;28;20815;-84
2023/02/24 14:52:15;;;;;;;10.03;1.93;;;;;;;;;;5014466;28;20948;-82
2023/02/24 14:55:00;;;;;;;7.10;1.30;;;;;;;;;;5015726;28;20460;-79
2023/02/24 14:57:31;;;;;;;4.30;0.40;;;;;;;;;;5014942;28;20836;-80
2023/02/24 15:00:09;;;;;;;4.77;0.53;;;;;;;;;;5001860;28;20444;-79
2023/02/24 15:02:36;;;;;;;3.37;1.20;;;;;;;;;;5012398;28;20948;-82
2023/02/24 15:05:02;;;;;;;4.20;0.90;;;;;;;;;;5014256;28;20460;-82
2023/02/24 15:07:30;;;;;;;6.70;1.07;;;;;;;;;;5015407;28;20433;-79
2023/02/24 15:09:57;;;;;;;14.07;2.97;;;;;;;;;;5015424;28;20418;-79
2023/02/24 15:12:23;;;;;;;11.20;1.13;;;;;;;;;;4985416;28;20438;-79
2023/02/24 15:15:17;;;;;;;8.13;1.30;;;;;;;;;;5003768;28;20519;-83
2023/02/24 15:17:43;;;;;;;5.80;1.00;;;;;;;;;;5015420;28;20403;-79
2023/02/24 15:20:24;;;;;;;5.50;1.33;;;;;;;;;;5013941;28;20431;-79
2023/02/24 15:22:50;;;;;;;2.60;0.60;;;;;;;;;;5015152;28;20975;-81
2023/02/24 15:25:25;;;;;;;5.93;0.77;;;;;;;;;;5008508;28;20440;-83
2023/02/24 15:27:55;;;;;;;5.07;0.70;;;;;;;;;;4998713;28;20621;-84
2023/02/24 15:30:41;;;;;;;3.73;0.40;;;;;;;;;;5010628;28;20493;-82
2023/02/24 15:33:07;;;;;;;5.23;0.80;;;;;;;;;;4994159;28;20421;-78
2023/02/24 15:35:36;;;;;;;4.60;1.03;;;;;;;;;;4999943;28;20475;-80
2023/02/24 15:38:02;;;;;;;4.83;0.70;;;;;;;;;;5004662;28;20415;-81